sensor_id;sensor_type;location;lat;lon;timestamp;temperature;humidity
3998;DHT22;61314;53.444;9.902;2023-04-03T17:00:14;6.40;99.90
3998;DHT22;61314;53.444;9.902;2023-04-03T17:02:41;6.40;99.90
3998;DHT22;61314;53.444;9.902;2023-04-03T17:05:08;6.40;99.90
3998;DHT22;61314;53.444;9.902;2023-04-03T17:07:34;6.40;99.90
3998;DHT22;61314;53.444;9.902;2023-04-03T17:10:01;6.30;99.90
3998;DHT22;61314;53.444;9.902;2023-04-03T17:12:28;6.30;99.90
3998;DHT22;61314;53.444;9.902;2023-04-03T17:14:54;6.20;99.90
3998;DHT22;61314;53.444;9.902;2023-04-03T17:17:23;6.20;99.90
3998;DHT22;61314;53.444;9.902;2023-04-03T17:32:08;6.00;99.90
3998;DHT22;61314;53.444;9.902;2023-04-03T17:34:34;5.90;99.90
3998;DHT22;61314;53.444;9.902;2023-04-03T17:37:02;5.90;99.90
3998;DHT22;61314;53.444;9.902;2023-04-03T17:39:29;5.80;99.90
3998;DHT22;61314;53.444;9.902;2023-04-03T17:41:55;5.80;99.90
3998;DHT22;61314;53.444;9.902;2023-04-03T17:44:22;5.70;99.90
3998;DHT22;61314;53.444;9.902;2023-04-03T17:46:48;5.70;99.90
3998;DHT22;61314;53.444;9.902;2023-04-03T17:49:15;5.60;99.90
3998;DHT22;61314;53.444;9.902;2023-04-03T17:51:44;5.70;99.90
3998;DHT22;61314;53.444;9.902;2023-04-03T17:54:10;5.60;99.90
3998;DHT22;61314;53.444;9.902;2023-04-03T17:56:37;5.60;99.90
3998;DHT22;61314;53.444;9.902;2023-04-03T17:59:04;5.50;99.90
3998;DHT22;61314;53.444;9.902;2023-04-03T18:01:32;5.50;99.90
3998;DHT22;61314;53.444;9.902;2023-04-03T18:06:30;5.40;99.90
3998;DHT22;61314;53.444;9.902;2023-04-03T18:09:21;5.40;99.90
3998;DHT22;61314;53.444;9.902;2023-04-03T18:11:51;5.30;99.90
3998;DHT22;61314;53.444;9.902;2023-04-03T18:14:21;5.20;99.90
3998;DHT22;61314;53.444;9.902;2023-04-03T18:16:49;5.20;99.90
3998;DHT22;61314;53.444;9.902;2023-04-03T18:19:16;5.20;99.90
3998;DHT22;61314;53.444;9.902;2023-04-03T18:21:50;5.10;99.90
3998;DHT22;61314;53.444;9.902;2023-04-03T18:24:18;5.10;99.90
3998;DHT22;61314;53.444;9.902;2023-04-03T18:36:39;4.90;99.90
3998;DHT22;61314;53.444;9.902;2023-04-03T18:39:06;4.80;99.90
3998;DHT22;61314;53.444;9.902;2023-04-03T18:41:34;4.80;99.90
3998;DHT22;61314;53.444;9.902;2023-04-03T18:44:04;4.70;99.90
3998;DHT22;61314;53.444;9.902;2023-04-03T18:46:32;4.70;99.90
3998;DHT22;61314;53.444;9.902;2023-04-03T18:48:58;4.70;99.90
3998;DHT22;61314;53.444;9.902;2023-04-03T18:51:25;4.60;99.90
3998;DHT22;61314;53.444;9.902;2023-04-03T18:53:52;4.60;99.90
3998;DHT22;61314;53.444;9.902;2023-04-03T18:56:19;4.60;99.90
3998;DHT22;61314;53.444;9.902;2023-04-03T18:58:47;4.60;99.90
3998;DHT22;61314;53.444;9.902;2023-04-03T19:01:14;4.60;99.90
3998;DHT22;61314;53.444;9.902;2023-04-03T19:03:40;4.50;99.90
3998;DHT22;61314;53.444;9.902;2023-04-03T19:06:07;4.50;99.90
3998;DHT22;61314;53.444;9.902;2023-04-03T19:08:34;4.50;99.90
